Weather History for Mekoryuk, AK

Change the Weather History Date:

Thursday, October 31, 2013

  Actual Average Record
Temperature  
Mean Temperature 34 °F -  
Max Temperature 35 °F 32 °F 42 °F (1984)
Min Temperature 33 °F 25 °F 3 °F (1999)
Degree Days  
Heating Degree Days 31    
Moisture  
Dew Point 26 °F    
Average Humidity 73    
Maximum Humidity 81    
Minimum Humidity 65    
Precipitation  
Precipitation 0.00 in - - ()
Sea Level Pressure  
Sea Level Pressure 29.70 in    
Wind  
Wind Speed 11 mph (North)    
Max Wind Speed 15 mph    
Max Gust Speed 20 mph    
Visibility 9 miles    
Events      
Averages and records for this station are not official NWS values.
T = Trace of Precipitation, MM = Missing Value Source: NWS Daily Summary

Daily Weather History Graph

Daily Weather History Graph

Search for Another Location

Airport:

Trip Planner

Search our weather history database for the weather conditions in past years. The results will help you decide how hot, cold, wet, or windy it might be!

Date:

Astronomy

Oct. 31, 2013 Rise Set
Actual Time 10:27 AM AKDT 7:08 PM AKDT
Civil Twilight 9:42 AM AKDT 7:54 PM AKDT
Nautical Twilight 8:51 AM AKDT 8:44 PM AKDT
Astronomical Twilight 8:03 AM AKDT 9:32 PM AKDT
Moon 6:49 AM AKDT (10/31) 6:07 PM AKDT (10/31)
Length of Visible Light 10h 12m
Length of Day
8h 40m
Waning Crescent, 9% of the Moon is Illuminated
Oct 31
Waning Crescent
Nov 3
New
Nov 9
First Quarter
Nov 17
Full
Nov 25
Last Quarter

Hourly Weather History & Observations

Time (AKDT) Temp. Windchill Dew Point Humidity Pressure Visibility Wind Dir Wind Speed Gust Speed Precip Events Conditions
12:16 AM 33.8 °F 24.3 °F 26.6 °F 75% 29.49 in 9.0 mi NNE 13.8 mph - N/A   Overcast
12:36 AM 33.8 °F 25.8 °F 26.6 °F 75% 29.50 in 8.0 mi NNE 10.4 mph - N/A   Overcast
12:56 AM 33.8 °F 25.8 °F 26.6 °F 75% 29.50 in 9.0 mi NNE 10.4 mph 16.1 mph N/A   Overcast
1:16 AM 33.8 °F 25.3 °F 26.6 °F 75% 29.51 in 10.0 mi NNE 11.5 mph - N/A   Overcast
1:36 AM 33.8 °F 26.4 °F 26.6 °F 75% 29.51 in 10.0 mi NE 9.2 mph - N/A   Overcast
1:56 AM 33.8 °F 24.3 °F 26.6 °F 75% 29.52 in 8.0 mi NNE 13.8 mph - N/A   Overcast
2:16 AM 33.8 °F 24.8 °F 26.6 °F 75% 29.53 in 10.0 mi NNE 12.7 mph - N/A   Overcast
2:36 AM 33.8 °F 24.3 °F 24.8 °F 70% 29.53 in 10.0 mi NNE 13.8 mph - N/A   Overcast
2:56 AM 33.8 °F 24.3 °F 24.8 °F 70% 29.54 in 10.0 mi NNE 13.8 mph - N/A   Overcast
3:16 AM 33.8 °F 23.9 °F 24.8 °F 70% 29.54 in 10.0 mi NNE 15.0 mph - N/A   Overcast
3:36 AM 33.8 °F 25.8 °F 24.8 °F 70% 29.54 in 10.0 mi NNE 10.4 mph - N/A   Overcast
3:56 AM 33.8 °F 25.8 °F 26.6 °F 75% 29.55 in 8.0 mi North 10.4 mph - N/A   Overcast
4:16 AM 33.8 °F 27.7 °F 26.6 °F 75% 29.55 in 10.0 mi North 6.9 mph - N/A   Mostly Cloudy
4:36 AM 33.8 °F 24.8 °F 26.6 °F 75% 29.56 in 9.0 mi North 12.7 mph - N/A   Mostly Cloudy
4:56 AM 33.8 °F 27.7 °F 24.8 °F 70% 29.56 in 10.0 mi NNE 6.9 mph - N/A   Mostly Cloudy
5:16 AM 33.8 °F 25.3 °F 26.6 °F 75% 29.57 in 10.0 mi NNE 11.5 mph - N/A   Overcast
5:36 AM 33.8 °F 25.8 °F 26.6 °F 75% 29.57 in 8.0 mi NNE 10.4 mph 19.6 mph N/A   Overcast
5:56 AM 33.8 °F 25.8 °F 26.6 °F 75% 29.58 in 5.0 mi North 10.4 mph 17.3 mph N/A   Mostly Cloudy
6:16 AM 33.8 °F 24.8 °F 24.8 °F 70% 29.58 in 10.0 mi NNE 12.7 mph - N/A   Overcast
6:36 AM 33.8 °F 25.3 °F 24.8 °F 70% 29.59 in 10.0 mi NE 11.5 mph - N/A   Overcast
6:56 AM 33.8 °F 25.8 °F 24.8 °F 70% 29.60 in 10.0 mi NNE 10.4 mph - N/A   Overcast
7:16 AM 33.8 °F 25.3 °F 24.8 °F 70% 29.60 in 10.0 mi NNE 11.5 mph - N/A   Overcast
7:36 AM 33.8 °F 27.0 °F 26.6 °F 75% 29.61 in 10.0 mi NNE 8.1 mph - N/A   Overcast
7:56 AM 33.8 °F 27.0 °F 26.6 °F 75% 29.61 in 8.0 mi North 8.1 mph - N/A   Overcast
8:16 AM 33.8 °F 27.7 °F 26.6 °F 75% 29.62 in 10.0 mi NNE 6.9 mph - N/A   Overcast
8:36 AM 33.8 °F 25.8 °F 26.6 °F 75% 29.63 in 7.0 mi North 10.4 mph - N/A   Overcast
8:56 AM 33.8 °F 27.0 °F 26.6 °F 75% 29.63 in 8.0 mi North 8.1 mph - N/A   Overcast
9:16 AM 33.8 °F 23.9 °F 26.6 °F 75% 29.64 in 10.0 mi NNE 15.0 mph - N/A   Mostly Cloudy
9:36 AM 33.8 °F 24.8 °F 26.6 °F 75% 29.64 in 10.0 mi North 12.7 mph - N/A   Mostly Cloudy
9:56 AM 33.8 °F 24.3 °F 26.6 °F 75% 29.65 in 10.0 mi NNE 13.8 mph - N/A   Overcast
10:16 AM 33.8 °F 26.4 °F 26.6 °F 75% 29.65 in 10.0 mi North 9.2 mph - N/A   Mostly Cloudy
10:36 AM 33.8 °F 25.3 °F 26.6 °F 75% 29.66 in 10.0 mi NNE 11.5 mph 17.3 mph N/A   Mostly Cloudy
10:56 AM 33.8 °F 26.4 °F 26.6 °F 75% 29.67 in 10.0 mi North 9.2 mph - N/A   Overcast
11:16 AM 35.6 °F 28.0 °F 28.4 °F 75% 29.68 in 7.0 mi North 10.4 mph - N/A   Overcast
11:36 AM 35.6 °F 27.1 °F 28.4 °F 75% 29.68 in 9.0 mi North 12.7 mph - N/A   Overcast
11:56 AM 35.6 °F 26.2 °F 26.6 °F 70% 29.69 in 8.0 mi North 15.0 mph - N/A   Mostly Cloudy
12:16 PM 35.6 °F 27.1 °F 26.6 °F 70% 29.70 in 10.0 mi North 12.7 mph - N/A   Overcast
12:36 PM 35.6 °F 27.1 °F 26.6 °F 70% 29.71 in 9.0 mi North 12.7 mph 18.4 mph N/A   Overcast
12:56 PM 35.6 °F 27.5 °F 26.6 °F 70% 29.72 in 10.0 mi NNE 11.5 mph - N/A   Overcast
1:16 PM 35.6 °F 27.1 °F 26.6 °F 70% 29.73 in 10.0 mi NNE 12.7 mph - N/A   Overcast
1:36 PM 33.8 °F 25.8 °F 26.6 °F 75% 29.74 in 2.5 mi NNE 10.4 mph - N/A   Overcast
1:56 PM 35.6 °F 29.2 °F 26.6 °F 70% 29.74 in 10.0 mi NNE 8.1 mph - N/A   Overcast
2:16 PM 35.6 °F 28.0 °F 26.6 °F 70% 29.75 in 10.0 mi North 10.4 mph - N/A   Overcast
2:36 PM 35.6 °F 29.2 °F 24.8 °F 65% 29.75 in 10.0 mi NNE 8.1 mph - N/A   Overcast
2:56 PM 35.6 °F 29.2 °F 24.8 °F 65% 29.76 in 10.0 mi NNE 8.1 mph - N/A   Overcast
3:16 PM 35.6 °F 27.5 °F 26.6 °F 70% 29.76 in 10.0 mi North 11.5 mph - N/A   Overcast
3:36 PM 35.6 °F 32.8 °F 26.6 °F 70% 29.76 in 10.0 mi NNE 3.5 mph - N/A   Overcast
3:56 PM 35.6 °F 27.5 °F 26.6 °F 70% 29.78 in 8.0 mi NNW 11.5 mph - N/A   Overcast
4:16 PM 35.6 °F 30.7 °F 28.4 °F 75% 29.78 in 10.0 mi NNW 5.8 mph - N/A   Overcast
4:36 PM 35.6 °F 29.9 °F 26.6 °F 70% 29.78 in 10.0 mi North 6.9 mph - N/A   Overcast
4:56 PM 35.6 °F 27.1 °F 24.8 °F 65% 29.79 in 10.0 mi North 12.7 mph 16.1 mph N/A   Overcast
5:16 PM 35.6 °F 28.6 °F 24.8 °F 65% 29.79 in 10.0 mi North 9.2 mph - N/A   Overcast
5:36 PM 35.6 °F 28.0 °F 24.8 °F 65% 29.80 in 10.0 mi North 10.4 mph - N/A   Overcast
5:56 PM 35.6 °F 28.0 °F 26.6 °F 70% 29.81 in 10.0 mi NNW 10.4 mph - N/A   Overcast
6:16 PM 35.6 °F 29.2 °F 26.6 °F 70% 29.81 in 10.0 mi North 8.1 mph - N/A   Overcast
6:36 PM 35.6 °F 26.2 °F 26.6 °F 70% 29.82 in 10.0 mi North 15.0 mph - N/A   Overcast
6:56 PM 35.6 °F 28.0 °F 26.6 °F 70% 29.82 in 10.0 mi North 10.4 mph - N/A   Mostly Cloudy
7:16 PM 35.6 °F 26.6 °F 26.6 °F 70% 29.83 in 10.0 mi North 13.8 mph - N/A   Overcast
7:36 PM 33.8 °F 26.4 °F 28.4 °F 81% 29.84 in 10.0 mi North 9.2 mph - N/A   Overcast
7:56 PM 33.8 °F 25.8 °F 26.6 °F 75% 29.85 in 5.0 mi North 10.4 mph - N/A   Overcast
8:16 PM 33.8 °F 27.7 °F 26.6 °F 75% 29.85 in 4.0 mi North 6.9 mph - N/A   Overcast
8:36 PM 33.8 °F 25.8 °F 26.6 °F 75% 29.86 in 10.0 mi North 10.4 mph - N/A   Mostly Cloudy
8:56 PM 33.8 °F 26.4 °F 26.6 °F 75% 29.87 in 10.0 mi North 9.2 mph - N/A   Mostly Cloudy
9:16 PM 33.8 °F 27.0 °F 26.6 °F 75% 29.87 in 10.0 mi North 8.1 mph - N/A   Mostly Cloudy
9:36 PM 33.8 °F 28.6 °F 26.6 °F 75% 29.88 in 10.0 mi ENE 5.8 mph - N/A   Mostly Cloudy
9:56 PM 33.8 °F 25.3 °F 28.4 °F 81% 29.89 in 10.0 mi NNW 11.5 mph - N/A   Overcast
10:16 PM 33.8 °F 27.7 °F 26.6 °F 75% 29.89 in 10.0 mi NNW 6.9 mph - N/A   Overcast
10:36 PM 33.8 °F 27.7 °F 26.6 °F 75% 29.90 in 10.0 mi North 6.9 mph - N/A   Mostly Cloudy
10:56 PM 33.8 °F 28.6 °F 28.4 °F 81% 29.91 in 10.0 mi NNW 5.8 mph - N/A   Overcast
11:16 PM 33.8 °F 26.4 °F 26.6 °F 75% 29.91 in 10.0 mi NNE 9.2 mph - N/A   Overcast
11:36 PM 33.8 °F 27.7 °F 26.6 °F 75% 29.92 in 10.0 mi North 6.9 mph - N/A   Scattered Clouds
11:56 PM 33.8 °F 29.6 °F 26.6 °F 75% 29.93 in 10.0 mi NE 4.6 mph - N/A   Clear